createdAt,value
2023-02-10T00:01:35.233Z,70.60
2023-02-10T00:04:03.354Z,70.65
2023-02-10T00:06:31.277Z,70.77
2023-02-10T00:09:00.763Z,70.94
2023-02-10T00:11:48.239Z,71.01
2023-02-10T00:14:20.230Z,71.16
2023-02-10T00:16:50.471Z,71.06
2023-02-10T00:19:18.178Z,71.23
2023-02-10T00:21:45.944Z,71.43
2023-02-10T00:24:13.699Z,71.15
2023-02-10T00:26:42.773Z,71.03
2023-02-10T00:29:10.502Z,71.28
2023-02-10T00:31:38.286Z,71.41
2023-02-10T00:34:06.105Z,71.39
2023-02-10T00:36:33.909Z,71.84
2023-02-10T00:39:01.649Z,71.54
2023-02-10T00:41:29.450Z,71.43
2023-02-10T00:43:58.589Z,71.42
2023-02-10T00:46:26.593Z,71.72
2023-02-10T00:48:54.334Z,71.38
2023-02-10T00:51:22.353Z,71.75
2023-02-10T00:53:52.051Z,71.75
2023-02-10T00:56:20.833Z,72.15
2023-02-10T00:58:48.710Z,72.05
2023-02-10T01:01:17.982Z,72.92
2023-02-10T01:03:45.732Z,73.16
2023-02-10T01:06:15.904Z,73.06
2023-02-10T01:08:44.048Z,72.90
2023-02-10T01:11:14.569Z,73.03
2023-02-10T01:13:43.638Z,73.39
2023-02-10T01:16:14.448Z,73.44
2023-02-10T01:18:44.346Z,73.40
2023-02-10T01:21:14.017Z,73.37
2023-02-10T01:23:42.250Z,73.76
2023-02-10T01:26:10.844Z,73.60
2023-02-10T01:28:39.032Z,73.73
2023-02-10T01:31:08.695Z,74.00
2023-02-10T01:33:36.608Z,73.91
2023-02-10T01:36:07.490Z,73.84
2023-02-10T01:38:35.786Z,73.84
2023-02-10T01:41:03.811Z,73.82
2023-02-10T01:43:31.940Z,73.81
2023-02-10T01:45:59.853Z,73.51
2023-02-10T01:48:27.815Z,73.53
2023-02-10T01:50:59.282Z,73.70
2023-02-10T01:53:29.063Z,73.67
2023-02-10T01:55:59.389Z,73.82
2023-02-10T01:58:31.357Z,73.98
2023-02-10T02:00:59.114Z,73.77
2023-02-10T02:03:27.219Z,74.09
2023-02-10T02:05:55.000Z,74.00
2023-02-10T02:08:25.932Z,74.08
2023-02-10T02:11:24.101Z,74.39
2023-02-10T02:14:12.404Z,74.71
2023-02-10T02:16:52.441Z,74.80
2023-02-10T02:20:26.105Z,74.61
2023-02-10T02:23:12.270Z,74.77
2023-02-10T02:26:23.941Z,75.27
2023-02-10T02:32:36.400Z,75.17
2023-02-10T02:35:08.837Z,75.11
2023-02-10T02:37:38.772Z,75.06
2023-02-10T02:40:07.320Z,74.96
2023-02-10T02:42:35.825Z,75.03
2023-02-10T02:45:07.165Z,75.37
2023-02-10T02:47:57.089Z,75.03
2023-02-10T02:50:29.469Z,75.26
2023-02-10T02:53:06.744Z,75.60
2023-02-10T02:55:47.267Z,75.55
2023-02-10T02:58:20.402Z,75.22
2023-02-10T03:00:50.054Z,75.60
2023-02-10T03:03:20.746Z,75.96
2023-02-10T03:05:48.943Z,75.89
2023-02-10T03:08:16.961Z,76.54
2023-02-10T03:10:44.814Z,76.43
2023-02-10T03:13:12.856Z,76.79
2023-02-10T03:15:41.074Z,76.35
2023-02-10T03:18:09.107Z,76.56
2023-02-10T03:20:38.293Z,76.98
2023-02-10T03:23:06.080Z,77.42
2023-02-10T03:25:34.251Z,77.51
2023-02-10T03:28:02.010Z,77.53
2023-02-10T03:30:30.116Z,77.94
2023-02-10T03:32:57.934Z,78.25
2023-02-10T03:35:25.756Z,77.98
2023-02-10T03:37:55.003Z,78.22
2023-02-10T03:40:22.859Z,78.38
2023-02-10T03:42:50.680Z,78.10
2023-02-10T03:45:18.679Z,78.31
2023-02-10T03:47:46.461Z,78.01
2023-02-10T03:50:14.494Z,78.03
2023-02-10T03:52:42.450Z,78.30
2023-02-10T03:55:15.468Z,78.28
2023-02-10T03:57:43.695Z,78.26
2023-02-10T04:00:13.367Z,78.45
2023-02-10T04:02:41.237Z,78.56
2023-02-10T04:05:09.413Z,78.60
2023-02-10T04:07:37.324Z,78.25
2023-02-10T04:10:06.273Z,78.15
2023-02-10T04:12:35.578Z,78.52
2023-02-10T04:15:03.530Z,78.10
2023-02-10T04:17:31.378Z,78.38
2023-02-10T04:19:59.322Z,78.07
2023-02-10T04:22:27.207Z,78.23
2023-02-10T04:24:55.159Z,78.40
2023-02-10T04:27:23.142Z,77.92
2023-02-10T04:29:52.498Z,78.30
2023-02-10T04:32:20.440Z,78.17
2023-02-10T04:34:48.315Z,77.67
2023-02-10T04:37:16.388Z,78.07
2023-02-10T04:39:44.520Z,78.23
2023-02-10T04:42:12.654Z,78.41
2023-02-10T04:44:40.459Z,78.36
2023-02-10T04:47:09.780Z,78.17
2023-02-10T04:49:37.607Z,77.99
2023-02-10T04:52:05.586Z,78.06
2023-02-10T04:54:33.653Z,78.02
2023-02-10T04:57:01.451Z,78.21
2023-02-10T04:59:29.262Z,78.01
2023-02-10T05:01:57.158Z,78.82
2023-02-10T05:04:26.436Z,78.82
2023-02-10T05:06:54.674Z,78.59
2023-02-10T05:09:22.596Z,79.22
2023-02-10T05:11:50.562Z,78.86
2023-02-10T05:14:18.632Z,78.66
2023-02-10T05:16:46.651Z,78.56
2023-02-10T05:19:14.562Z,78.61
2023-02-10T05:21:43.902Z,78.69
2023-02-10T05:24:11.881Z,78.99
2023-02-10T05:26:39.714Z,78.79
2023-02-10T05:29:07.849Z,78.94
2023-02-10T05:31:36.978Z,78.81
2023-02-10T05:34:05.034Z,79.14
2023-02-10T05:36:33.029Z,78.73
2023-02-10T05:39:19.909Z,78.45
2023-02-10T05:41:47.708Z,78.39
2023-02-10T05:44:15.656Z,78.41
2023-02-10T05:46:43.923Z,78.34
2023-02-10T05:49:11.901Z,78.43
2023-02-10T05:51:39.729Z,78.11
2023-02-10T05:54:09.781Z,78.00
2023-02-10T05:56:37.978Z,77.93
2023-02-10T05:59:05.967Z,78.04
2023-02-10T06:01:34.528Z,78.25
2023-02-10T06:04:02.644Z,78.75
2023-02-10T06:06:30.680Z,78.53
2023-02-10T06:08:58.525Z,78.80
2023-02-10T06:11:27.862Z,78.91
2023-02-10T06:13:55.753Z,78.46
2023-02-10T06:16:23.611Z,78.65
2023-02-10T06:18:51.606Z,79.24
2023-02-10T06:21:20.210Z,78.82
2023-02-10T06:23:48.402Z,78.68
2023-02-10T06:26:16.459Z,78.96
2023-02-10T06:28:46.045Z,79.04
2023-02-10T06:31:13.998Z,78.90
2023-02-10T06:33:41.836Z,79.20
2023-02-10T06:36:11.489Z,79.23
2023-02-10T06:38:40.271Z,78.87
2023-02-10T06:41:08.327Z,78.80
2023-02-10T06:43:37.058Z,78.93
2023-02-10T06:46:08.119Z,79.04
2023-02-10T06:48:36.294Z,79.65
2023-02-10T06:51:04.425Z,79.39
2023-02-10T06:53:32.358Z,79.27
2023-02-10T06:56:00.349Z,79.76
2023-02-10T06:58:28.462Z,79.51
2023-02-10T07:00:56.320Z,79.62
2023-02-10T07:03:25.726Z,79.55
2023-02-10T07:05:53.666Z,79.69
2023-02-10T07:08:21.782Z,80.04
2023-02-10T07:10:50.150Z,80.23
2023-02-10T07:13:18.323Z,80.31
2023-02-10T07:15:46.250Z,80.25
2023-02-10T07:18:15.019Z,80.49
2023-02-10T07:20:44.517Z,80.88
2023-02-10T07:23:14.862Z,80.75
2023-02-10T07:25:43.818Z,80.88
2023-02-10T07:28:11.664Z,81.01
2023-02-10T07:30:39.607Z,80.81
2023-02-10T07:33:07.506Z,80.64
2023-02-10T07:35:36.565Z,80.86
2023-02-10T07:38:05.771Z,81.19
2023-02-10T07:40:34.020Z,81.25
2023-02-10T07:43:02.063Z,81.08
2023-02-10T07:45:31.991Z,80.96
2023-02-10T07:47:59.997Z,81.36
2023-02-10T07:50:31.304Z,80.80
2023-02-10T07:53:00.093Z,80.88
2023-02-10T07:55:29.281Z,80.71
2023-02-10T07:57:57.037Z,81.15
2023-02-10T08:00:24.966Z,80.58
2023-02-10T08:02:52.648Z,80.83
2023-02-10T08:05:20.555Z,80.65
2023-02-10T08:07:50.770Z,80.58
2023-02-10T08:10:18.547Z,80.70
2023-02-10T08:12:48.143Z,80.50
2023-02-10T08:15:18.041Z,80.71
2023-02-10T08:17:48.606Z,80.35
2023-02-10T08:20:16.312Z,81.00
2023-02-10T08:22:44.057Z,80.18
2023-02-10T08:25:11.837Z,80.50
2023-02-10T08:27:39.610Z,80.45
2023-02-10T08:30:11.249Z,80.77
2023-02-10T08:32:39.169Z,80.51
2023-02-10T08:35:07.576Z,80.46
2023-02-10T08:37:35.390Z,80.25
2023-02-10T08:40:03.297Z,80.17
2023-02-10T08:42:31.006Z,80.03
2023-02-10T08:44:58.773Z,80.16
2023-02-10T08:47:27.964Z,79.70
2023-02-10T08:49:55.637Z,80.12
2023-02-10T08:52:24.558Z,80.12
2023-02-10T08:54:53.206Z,79.46
2023-02-10T08:57:21.151Z,79.10
2023-02-10T08:59:48.820Z,79.48
2023-02-10T09:02:16.709Z,78.94
2023-02-10T09:04:47.091Z,79.04
2023-02-10T09:07:17.146Z,78.41
2023-02-10T09:09:45.519Z,78.59
2023-02-10T09:12:14.014Z,78.57
2023-02-10T09:14:42.224Z,78.58
2023-02-10T09:17:10.598Z,78.64
2023-02-10T09:19:38.951Z,78.85
2023-02-10T09:22:08.701Z,79.13
2023-02-10T09:24:36.523Z,79.06
2023-02-10T09:27:04.287Z,79.93
2023-02-10T09:29:32.053Z,79.89
2023-02-10T09:31:59.845Z,79.61
2023-02-10T09:34:30.793Z,80.03
2023-02-10T09:37:01.945Z,79.48
2023-02-10T09:39:31.611Z,79.45
2023-02-10T09:42:09.591Z,79.63
2023-02-10T09:44:40.364Z,79.50
2023-02-10T09:47:31.330Z,78.95
2023-02-10T09:50:23.004Z,79.17
2023-02-10T09:53:04.361Z,78.80
2023-02-10T09:55:37.724Z,78.43
2023-02-10T09:58:16.116Z,78.08
2023-02-10T10:00:46.730Z,78.11
2023-02-10T10:03:18.405Z,77.98
2023-02-10T10:05:54.378Z,78.07
2023-02-10T10:08:27.200Z,78.56
2023-02-10T10:11:02.358Z,78.22
2023-02-10T10:13:31.346Z,78.24
2023-02-10T10:16:12.345Z,78.40
2023-02-10T10:18:49.885Z,78.10
2023-02-10T10:21:26.964Z,77.92
2023-02-10T10:24:09.092Z,78.18
2023-02-10T10:26:57.031Z,77.73
2023-02-10T10:29:33.700Z,78.38
2023-02-10T10:32:12.434Z,78.30
2023-02-10T10:34:44.309Z,78.07
2023-02-10T10:37:17.745Z,77.96
2023-02-10T10:39:48.014Z,78.06
2023-02-10T10:42:24.576Z,77.84
2023-02-10T10:44:56.123Z,77.88
2023-02-10T10:47:36.404Z,77.90
2023-02-10T10:50:05.067Z,78.00
2023-02-10T10:52:36.537Z,77.30
2023-02-10T10:55:09.605Z,76.92
2023-02-10T10:57:39.063Z,76.96
2023-02-10T11:00:20.165Z,76.63
2023-02-10T11:03:00.594Z,76.60
2023-02-10T11:05:32.164Z,76.63
2023-02-10T11:08:00.894Z,76.29
2023-02-10T11:10:35.061Z,76.35
2023-02-10T11:13:06.053Z,76.35
2023-02-10T11:15:40.221Z,75.90
2023-02-10T11:18:17.828Z,75.59
2023-02-10T11:20:55.608Z,75.16
2023-02-10T11:23:23.749Z,74.74
2023-02-10T11:25:59.718Z,74.21
2023-02-10T11:28:31.512Z,73.61
2023-02-10T11:31:07.886Z,73.28
2023-02-10T11:33:37.477Z,73.24
2023-02-10T11:36:08.603Z,72.90
2023-02-10T11:38:38.310Z,72.42
2023-02-10T11:41:10.169Z,72.13
2023-02-10T11:43:43.322Z,71.61
2023-02-10T11:46:22.266Z,71.65
2023-02-10T11:48:58.160Z,70.94
2023-02-10T11:51:26.386Z,70.69
2023-02-10T11:53:54.583Z,70.10
2023-02-10T11:56:46.941Z,70.40
2023-02-10T11:59:27.586Z,70.31
2023-02-10T12:01:58.895Z,69.76
2023-02-10T12:05:02.368Z,69.07
2023-02-10T12:07:41.676Z,68.35
2023-02-10T12:10:18.854Z,68.74
2023-02-10T12:12:53.462Z,68.17
2023-02-10T12:15:36.320Z,68.09
2023-02-10T12:18:17.853Z,67.89
2023-02-10T12:20:56.353Z,67.90
2023-02-10T12:23:55.912Z,67.16
2023-02-10T12:26:29.128Z,67.52
2023-02-10T12:29:09.864Z,66.70
2023-02-10T12:31:51.276Z,66.73
2023-02-10T12:34:40.801Z,66.16
2023-02-10T12:37:21.505Z,65.41
2023-02-10T12:39:58.060Z,66.10
2023-02-10T12:42:43.383Z,65.36
2023-02-10T12:45:19.210Z,64.61
2023-02-10T12:47:57.621Z,63.92
2023-02-10T12:50:50.000Z,64.03
2023-02-10T12:53:22.013Z,64.00
2023-02-10T12:55:56.337Z,63.41
2023-02-10T12:58:29.887Z,63.55
2023-02-10T13:01:11.112Z,62.48
2023-02-10T13:03:43.851Z,62.00
2023-02-10T13:06:27.117Z,61.62
2023-02-10T13:08:59.839Z,62.19
2023-02-10T13:11:35.920Z,62.31
2023-02-10T13:14:12.121Z,62.38
2023-02-10T13:16:40.981Z,62.41
2023-02-10T13:19:27.178Z,62.40
2023-02-10T13:22:00.887Z,62.71
2023-02-10T13:24:42.501Z,62.54
2023-02-10T13:27:23.542Z,61.84
2023-02-10T13:30:04.795Z,61.27
2023-02-10T13:32:45.058Z,61.04
2023-02-10T13:35:20.373Z,60.65
2023-02-10T13:37:53.310Z,60.14
2023-02-10T13:40:24.446Z,60.68
2023-02-10T13:42:55.035Z,60.64
2023-02-10T13:45:26.047Z,60.60
2023-02-10T13:47:56.664Z,60.16
2023-02-10T13:50:31.985Z,59.83
2023-02-10T13:53:02.303Z,59.50
2023-02-10T13:55:48.045Z,59.07
2023-02-10T13:58:32.802Z,59.34
2023-02-10T14:01:01.270Z,59.85
2023-02-10T14:03:30.995Z,59.42
2023-02-10T14:06:02.468Z,59.69
2023-02-10T14:08:38.965Z,59.75
2023-02-10T14:11:31.483Z,58.94
2023-02-10T14:14:02.079Z,58.98
2023-02-10T14:16:37.422Z,58.96
2023-02-10T14:19:21.509Z,58.75
2023-02-10T14:21:55.771Z,58.73
2023-02-10T14:24:29.275Z,58.94
2023-02-10T14:27:04.117Z,59.49
2023-02-10T14:29:36.343Z,59.43
2023-02-10T14:32:09.570Z,60.51
2023-02-10T14:34:39.817Z,60.19
2023-02-10T14:37:18.971Z,60.23
2023-02-10T14:39:53.186Z,59.96
2023-02-10T14:42:22.707Z,61.29
2023-02-10T14:44:52.374Z,60.79
2023-02-10T14:47:23.722Z,60.76
2023-02-10T14:49:52.128Z,61.25
2023-02-10T14:52:37.057Z,61.17
2023-02-10T14:55:27.731Z,61.53
2023-02-10T14:57:59.614Z,61.90
2023-02-10T15:00:33.374Z,62.14
2023-02-10T15:03:03.110Z,62.44
2023-02-10T15:05:38.839Z,61.84
2023-02-10T15:08:15.240Z,62.05
2023-02-10T15:10:48.083Z,62.83
2023-02-10T15:13:16.192Z,62.79
2023-02-10T15:15:47.732Z,62.63
2023-02-10T15:18:21.196Z,62.44
2023-02-10T15:20:54.244Z,62.61
2023-02-10T15:23:31.618Z,62.99
2023-02-10T15:26:06.581Z,62.93
2023-02-10T15:28:34.819Z,62.95
2023-02-10T15:31:08.950Z,62.56
2023-02-10T15:33:40.118Z,62.72
2023-02-10T15:36:22.924Z,62.48
2023-02-10T15:39:01.264Z,63.18
2023-02-10T15:41:45.830Z,63.10
2023-02-10T15:44:31.665Z,63.55
2023-02-10T15:47:21.083Z,63.15
2023-02-10T15:49:50.690Z,63.66
2023-02-10T15:52:21.482Z,63.75
2023-02-10T15:54:52.034Z,63.09
2023-02-10T15:57:20.543Z,63.30
2023-02-10T15:59:51.861Z,63.23
2023-02-10T16:02:20.695Z,62.90
2023-02-10T16:04:49.435Z,62.90
2023-02-10T16:07:22.637Z,62.90
2023-02-10T16:09:52.043Z,63.55
2023-02-10T16:12:20.813Z,63.35
2023-02-10T16:14:49.228Z,63.54
2023-02-10T16:17:21.860Z,63.25
2023-02-10T16:19:50.117Z,63.50
2023-02-10T16:22:17.910Z,64.00
2023-02-10T16:24:45.963Z,63.86
2023-02-10T16:27:15.216Z,64.34
2023-02-10T16:29:43.077Z,64.57
2023-02-10T16:32:12.033Z,64.17
2023-02-10T16:34:40.183Z,64.71
2023-02-10T16:37:08.268Z,64.94
2023-02-10T16:39:39.425Z,65.04
2023-02-10T16:42:08.393Z,65.17
2023-02-10T16:44:37.724Z,65.34
2023-02-10T16:47:05.705Z,65.50
2023-02-10T16:49:33.506Z,65.57
2023-02-10T16:52:01.388Z,65.58
2023-02-10T16:54:30.365Z,65.97
2023-02-10T16:56:58.188Z,66.08
2023-02-10T16:59:26.004Z,66.10
2023-02-10T17:01:55.605Z,66.46
2023-02-10T17:04:23.581Z,66.63
2023-02-10T17:06:56.797Z,66.83
2023-02-10T17:09:27.286Z,66.93
2023-02-10T17:11:55.434Z,66.71
2023-02-10T17:14:24.644Z,67.25
2023-02-10T17:16:53.512Z,66.99
2023-02-10T17:19:33.343Z,66.96
2023-02-10T17:22:03.486Z,66.97
2023-02-10T17:24:34.624Z,67.18
2023-02-10T17:27:02.688Z,67.20
2023-02-10T17:29:30.479Z,67.00
2023-02-10T17:32:01.228Z,67.13
2023-02-10T17:34:34.703Z,67.26
2023-02-10T17:37:08.768Z,67.34
2023-02-10T17:39:41.213Z,67.32
2023-02-10T17:42:09.398Z,67.73
2023-02-10T17:44:38.014Z,67.43
2023-02-10T17:47:07.811Z,68.19
2023-02-10T17:49:41.750Z,68.09
2023-02-10T17:52:10.054Z,68.11
2023-02-10T17:54:38.031Z,68.22
2023-02-10T17:57:14.791Z,68.59
2023-02-10T17:59:48.777Z,68.63
2023-02-10T18:02:16.723Z,68.70
2023-02-10T18:04:47.546Z,68.40
2023-02-10T18:07:15.474Z,68.92
2023-02-10T18:09:43.434Z,69.00
2023-02-10T18:12:12.682Z,69.07
2023-02-10T18:14:40.646Z,69.42
2023-02-10T18:17:10.055Z,69.63
2023-02-10T18:19:39.366Z,70.08
2023-02-10T18:22:08.705Z,70.19
2023-02-10T18:24:36.467Z,70.12
2023-02-10T18:27:04.609Z,70.36
2023-02-10T18:29:32.635Z,70.45
2023-02-10T18:32:00.413Z,71.08
2023-02-10T18:34:28.416Z,70.81
2023-02-10T18:36:56.082Z,70.93
2023-02-10T18:39:25.366Z,70.93
2023-02-10T18:41:53.149Z,71.02
2023-02-10T18:44:20.839Z,71.49
2023-02-10T18:46:48.623Z,71.50
2023-02-10T18:49:16.450Z,71.67
2023-02-10T18:51:44.212Z,72.45
2023-02-10T18:54:11.958Z,72.61
2023-02-10T18:56:41.040Z,72.83
2023-02-10T18:59:08.796Z,73.28
2023-02-10T19:01:36.504Z,73.45
2023-02-10T19:04:04.694Z,73.52
2023-02-10T19:06:33.199Z,73.90
2023-02-10T19:09:01.253Z,74.22
2023-02-10T19:11:28.978Z,73.87
2023-02-10T19:13:58.245Z,74.18
2023-02-10T19:16:26.900Z,74.40
2023-02-10T19:18:54.722Z,74.46
2023-02-10T19:21:22.514Z,74.79
2023-02-10T19:23:50.523Z,74.86
2023-02-10T19:26:18.692Z,74.84
2023-02-10T19:28:46.382Z,75.17
2023-02-10T19:31:16.870Z,75.39
2023-02-10T19:33:47.986Z,74.96
2023-02-10T19:36:17.439Z,75.04
2023-02-10T19:38:45.636Z,75.17
2023-02-10T19:41:18.340Z,75.47
2023-02-10T19:43:47.319Z,75.61
2023-02-10T19:46:16.967Z,75.87
2023-02-10T19:48:46.170Z,75.82
2023-02-10T19:51:17.406Z,75.65
2023-02-10T19:53:45.656Z,75.83
2023-02-10T19:56:13.948Z,75.40
2023-02-10T19:58:41.969Z,75.48
2023-02-10T20:01:15.453Z,75.71
2023-02-10T20:03:45.400Z,75.73
2023-02-10T20:06:16.917Z,75.96
2023-02-10T20:08:44.762Z,75.82
2023-02-10T20:11:13.566Z,75.68
2023-02-10T20:13:41.634Z,75.63
2023-02-10T20:16:09.729Z,75.54
2023-02-10T20:18:37.633Z,75.67
2023-02-10T20:21:07.866Z,75.89
2023-02-10T20:23:38.301Z,76.02
2023-02-10T20:26:06.883Z,76.04
2023-02-10T20:28:34.721Z,75.74
2023-02-10T20:31:03.229Z,75.87
2023-02-10T20:33:31.578Z,75.83
2023-02-10T20:36:00.584Z,75.57
2023-02-10T20:38:30.040Z,76.19
2023-02-10T20:41:00.122Z,76.01
2023-02-10T20:43:29.023Z,76.51
2023-02-10T20:45:56.994Z,76.52
2023-02-10T20:48:24.742Z,76.62
2023-02-10T20:50:52.571Z,76.89
2023-02-10T20:53:20.364Z,76.98
2023-02-10T20:55:49.821Z,77.00
2023-02-10T20:58:17.738Z,76.93
2023-02-10T21:00:45.665Z,76.97
2023-02-10T21:03:14.114Z,77.17
2023-02-10T21:05:42.789Z,77.40
2023-02-10T21:08:10.605Z,77.21
2023-02-10T21:10:40.800Z,77.19
2023-02-10T21:13:10.000Z,77.26
2023-02-10T21:15:37.969Z,77.17
2023-02-10T21:18:09.064Z,77.14
2023-02-10T21:20:36.890Z,76.93
2023-02-10T21:23:04.643Z,77.35
2023-02-10T21:25:33.102Z,77.84
2023-02-10T21:28:01.047Z,77.53
2023-02-10T21:30:31.039Z,77.45
2023-02-10T21:32:58.953Z,77.51
2023-02-10T21:35:26.755Z,77.82
2023-02-10T21:37:54.823Z,77.96
2023-02-10T21:40:22.691Z,78.13
2023-02-10T21:42:50.425Z,78.38
2023-02-10T21:45:18.142Z,78.24
2023-02-10T21:47:47.329Z,78.26
2023-02-10T21:50:15.938Z,78.31
2023-02-10T21:52:43.696Z,78.67
2023-02-10T21:55:11.500Z,78.75
2023-02-10T21:57:39.257Z,78.83
2023-02-10T22:00:07.892Z,78.64
2023-02-10T22:02:35.706Z,79.03
2023-02-10T22:05:05.503Z,78.82
2023-02-10T22:07:33.565Z,79.06
2023-02-10T22:10:02.057Z,79.19
2023-02-10T22:12:30.004Z,79.27
2023-02-10T22:14:57.813Z,79.41
2023-02-10T22:17:25.561Z,79.43
2023-02-10T22:19:53.340Z,79.92
2023-02-10T22:22:22.449Z,79.52
2023-02-10T22:24:50.128Z,79.38
2023-02-10T22:27:17.885Z,79.45
2023-02-10T22:29:46.479Z,79.44
2023-02-10T22:32:15.347Z,79.81
2023-02-10T22:34:46.909Z,79.65
2023-02-10T22:37:14.744Z,79.96
2023-02-10T22:39:44.390Z,80.20
2023-02-10T22:42:12.169Z,80.06
2023-02-10T22:44:41.708Z,79.88
2023-02-10T22:47:09.639Z,80.31
2023-02-10T22:49:37.847Z,80.06
2023-02-10T22:52:08.131Z,80.45
2023-02-10T22:54:35.982Z,79.79
2023-02-10T22:57:05.403Z,79.38
2023-02-10T22:59:33.388Z,79.55
2023-02-10T23:02:01.203Z,79.07
2023-02-10T23:04:29.039Z,79.16
2023-02-10T23:06:56.763Z,78.96
2023-02-10T23:09:24.964Z,78.85
2023-02-10T23:11:52.980Z,79.03
2023-02-10T23:14:23.394Z,78.88
2023-02-10T23:16:52.761Z,78.73
2023-02-10T23:19:21.049Z,78.77
2023-02-10T23:21:49.062Z,78.86
2023-02-10T23:24:17.268Z,78.42
2023-02-10T23:26:45.064Z,78.68
2023-02-10T23:29:17.198Z,78.48
2023-02-10T23:31:47.096Z,78.59
2023-02-10T23:34:15.672Z,78.46
2023-02-10T23:36:43.700Z,78.53
2023-02-10T23:39:11.741Z,78.49
2023-02-10T23:41:40.380Z,78.47
2023-02-10T23:44:09.090Z,78.64
2023-02-10T23:46:37.002Z,78.76
2023-02-10T23:49:06.171Z,78.68
2023-02-10T23:51:33.891Z,78.61
2023-02-10T23:54:01.911Z,78.32
2023-02-10T23:56:29.702Z,78.48
2023-02-10T23:58:58.339Z,78.57
